Time;durP1;ratioP1;P1;durP2;ratioP2;P2;SDS_P1;SDS_P2;PMS_P1;PMS_P2;Temp;Humidity;BMP_temperature;BMP_pressure;BME280_temperature;BME280_humidity;BME280_pressure;Samples;Min_cycle;Max_cycle;Signal;HPM_P1;HPM_P2
2023/02/11 11:29:34;;;;;;;15.27;9.73;;;11.50;42.10;;;;;;6281167;22;20077;-80
2023/02/11 11:32:14;;;;;;;17.52;10.45;;;11.70;42.30;;;;;;6279026;22;20343;-79
2023/02/11 11:34:42;;;;;;;15.10;11.05;;;11.80;40.00;;;;;;6306538;22;20007;-79
2023/02/11 11:37:35;;;;;;;17.17;10.63;;;11.90;39.90;;;;;;6278990;22;20003;-79
2023/02/11 11:40:23;;;;;;;14.80;10.38;;;12.00;39.80;;;;;;6275386;22;20090;-79
2023/02/11 11:43:03;;;;;;;17.45;11.43;;;12.00;41.70;;;;;;6305474;22;20042;-79
2023/02/11 11:45:29;;;;;;;16.00;11.10;;;12.10;40.30;;;;;;6278890;22;20075;-79
2023/02/11 11:48:13;;;;;;;15.90;11.77;;;12.20;40.70;;;;;;6278929;22;20197;-80
2023/02/11 11:50:52;;;;;;;16.63;11.50;;;12.30;41.90;;;;;;6279219;22;20117;-79
2023/02/11 11:53:35;;;;;;;16.38;11.98;;;12.40;41.80;;;;;;6306781;22;20010;-80
2023/02/11 11:56:07;;;;;;;17.08;11.43;;;12.40;42.10;;;;;;6306068;22;20040;-81
2023/02/11 11:58:34;;;;;;;16.87;11.43;;;12.50;42.70;;;;;;6278561;22;20011;-79
2023/02/11 12:01:06;;;;;;;20.35;12.90;;;12.50;41.40;;;;;;6278362;22;19999;-79
2023/02/11 12:04:02;;;;;;;17.17;12.00;;;12.50;41.60;;;;;;6278600;22;20011;-78
2023/02/11 12:06:34;;;;;;;19.83;13.75;;;12.60;42.80;;;;;;6306136;22;20006;-79
2023/02/11 12:09:08;;;;;;;15.15;11.35;;;12.70;41.50;;;;;;6306031;22;20006;-81
2023/02/11 12:12:02;;;;;;;18.02;11.13;;;12.80;41.20;;;;;;6278879;22;20030;-78
2023/02/11 12:14:42;;;;;;;15.70;10.63;;;12.80;43.60;;;;;;6278848;22;20086;-79
2023/02/11 12:17:23;;;;;;;19.20;12.93;;;12.90;43.70;;;;;;6278999;22;20086;-79
2023/02/11 12:20:17;;;;;;;17.00;12.60;;;13.00;42.10;;;;;;6305844;22;20048;-79
2023/02/11 12:22:57;;;;;;;19.08;12.35;;;13.10;42.80;;;;;;6306300;22;20018;-80
2023/02/11 12:25:27;;;;;;;16.23;11.05;;;13.10;42.80;;;;;;6279010;22;20015;-79
2023/02/11 12:28:04;;;;;;;14.13;10.52;;;13.20;42.70;;;;;;6305993;22;20003;-80
2023/02/11 12:30:53;;;;;;;20.15;11.80;;;13.10;41.60;;;;;;6278925;22;20014;-80
2023/02/11 12:33:30;;;;;;;14.63;10.75;;;13.20;42.50;;;;;;6278930;22;20015;-80
2023/02/11 12:36:40;;;;;;;16.42;10.98;;;13.20;42.30;;;;;;6279660;22;20081;-80
2023/02/11 12:39:25;;;;;;;17.25;11.75;;;13.30;42.40;;;;;;6267279;22;20003;-79
2023/02/11 12:45:35;;;;;;;15.82;11.73;;;13.40;42.00;;;;;;6305905;22;20019;-80
2023/02/11 12:48:07;;;;;;;;;;;13.40;41.70;;;;;;6278869;22;20003;-80
2023/02/11 12:51:03;;;;;;;16.10;11.55;;;13.40;41.40;;;;;;6278657;22;19922;-75
2023/02/11 12:54:13;;;;;;;15.65;11.57;;;13.40;41.60;;;;;;6305806;22;20400;-78
2023/02/11 12:57:01;;;;;;;18.23;12.43;;;13.50;41.70;;;;;;6151207;23;20005;-80
2023/02/11 12:59:44;;;;;;;18.15;13.38;;;13.60;41.70;;;;;;6150212;23;20464;-75
2023/02/11 13:02:38;;;;;;;18.48;12.65;;;13.70;41.50;;;;;;6248753;22;20015;-79
2023/02/11 13:05:22;;;;;;;17.52;12.23;;;13.90;41.50;;;;;;6263645;22;20007;-72
2023/02/11 13:07:51;;;;;;;15.98;11.45;;;13.90;41.20;;;;;;6305847;22;20022;-75
2023/02/11 13:10:30;;;;;;;17.35;12.63;;;14.00;40.90;;;;;;6307488;22;20429;-77
2023/02/11 13:13:15;;;;;;;22.05;11.57;;;14.10;40.80;;;;;;6307638;22;20026;-77
2023/02/11 13:16:15;;;;;;;16.08;11.52;;;14.20;40.70;;;;;;6279957;22;20003;-73
2023/02/11 13:18:48;;;;;;;17.02;11.90;;;14.20;40.80;;;;;;6307965;22;19999;-78
2023/02/11 13:21:21;;;;;;;20.85;13.07;;;14.20;40.60;;;;;;6307472;22;20010;-76
2023/02/11 13:24:04;;;;;;;16.77;11.90;;;14.30;40.50;;;;;;6307943;22;20086;-75
2023/02/11 13:26:58;;;;;;;14.88;10.60;;;14.40;40.20;;;;;;6280091;22;20490;-74
2023/02/11 13:29:33;;;;;;;;;;;14.40;40.70;;;;;;6307621;22;20019;-74
2023/02/11 13:32:10;;;;;;;;;;;14.40;39.40;;;;;;6280521;22;19898;-76
2023/02/11 13:34:42;;;;;;;13.52;9.57;;;14.40;39.80;;;;;;6280364;22;19945;-74
2023/02/11 13:37:37;;;;;;;14.45;9.23;;;14.40;40.40;;;;;;6308250;22;20045;-76
2023/02/11 13:40:29;;;;;;;12.43;9.10;;;14.50;40.60;;;;;;6281511;22;20483;-77
2023/02/11 13:42:58;;;;;;;13.60;9.00;;;14.60;40.10;;;;;;6280169;22;20098;-77
2023/02/11 13:45:47;;;;;;;13.02;8.48;;;14.50;40.30;;;;;;6307258;22;20464;-76
2023/02/11 13:48:23;;;;;;;13.80;8.90;;;14.50;39.40;;;;;;6280140;22;20103;-77
2023/02/11 13:50:53;;;;;;;13.35;9.27;;;14.50;40.20;;;;;;6307560;22;19996;-76
2023/02/11 13:53:20;;;;;;;12.98;8.70;;;14.60;40.30;;;;;;6307732;22;19999;-75
2023/02/11 13:55:50;;;;;;;13.13;7.85;;;14.60;40.30;;;;;;6306604;22;20070;-74
2023/02/11 13:58:17;;;;;;;10.07;7.43;;;14.60;40.00;;;;;;6279625;22;20007;-77
2023/02/11 14:00:49;;;;;;;11.20;7.57;;;14.70;40.10;;;;;;6307839;22;20002;-76
2023/02/11 14:09:13;;;;;;;11.80;7.90;;;14.80;39.50;;;;;;6307654;22;20018;-76
2023/02/11 14:11:47;;;;;;;10.68;7.75;;;14.80;39.90;;;;;;6307359;22;20009;-77
2023/02/11 14:14:17;;;;;;;;;;;14.80;39.40;;;;;;6308332;22;19999;-77
2023/02/11 14:16:58;;;;;;;15.75;8.00;;;14.90;39.00;;;;;;6280101;22;19934;-76
2023/02/11 14:19:37;;;;;;;17.33;9.75;;;14.90;39.90;;;;;;6307363;22;20033;-75
2023/02/11 14:22:15;;;;;;;10.82;7.65;;;14.90;39.40;;;;;;6279242;22;20069;-75
2023/02/11 14:25:00;;;;;;;10.98;7.40;;;14.90;39.60;;;;;;6307130;22;19999;-74
2023/02/11 14:27:50;;;;;;;10.98;7.88;;;14.90;39.50;;;;;;6306955;22;20626;-76
2023/02/11 14:30:34;;;;;;;11.15;7.57;;;14.90;39.50;;;;;;6307031;22;20090;-75
2023/02/11 14:33:18;;;;;;;13.07;8.98;;;14.90;39.50;;;;;;6307057;22;20003;-76
2023/02/11 14:36:11;;;;;;;14.02;8.23;;;14.90;39.50;;;;;;6308112;22;19999;-76
2023/02/11 14:38:55;;;;;;;11.00;8.43;;;14.80;40.00;;;;;;6307836;22;20010;-75
2023/02/11 14:41:30;;;;;;;14.27;8.43;;;14.80;40.00;;;;;;6307393;22;20014;-76
2023/02/11 14:44:20;;;;;;;11.07;8.63;;;14.70;40.40;;;;;;6307141;22;20010;-75
2023/02/11 14:46:49;;;;;;;14.13;8.40;;;14.60;40.40;;;;;;6307161;22;20023;-76
2023/02/11 14:49:30;;;;;;;14.98;8.80;;;14.60;40.70;;;;;;6307945;22;20075;-74
2023/02/11 14:52:21;;;;;;;11.73;8.95;;;14.70;41.00;;;;;;6307722;22;20023;-79
2023/02/11 14:54:49;;;;;;;13.82;8.70;;;14.70;40.90;;;;;;6307824;22;19999;-77
2023/02/11 14:57:19;;;;;;;14.18;9.60;;;14.70;41.40;;;;;;6281466;22;20464;-77
2023/02/11 14:59:57;;;;;;;19.50;9.20;;;14.70;41.80;;;;;;6310632;22;20007;-77
2023/02/11 15:02:27;;;;;;;13.10;8.93;;;14.60;42.00;;;;;;6305948;22;20090;-76
2023/02/11 15:04:54;;;;;;;14.88;9.32;;;14.70;42.40;;;;;;6305647;22;20025;-77
2023/02/11 15:07:21;;;;;;;11.65;8.80;;;14.60;42.40;;;;;;6306946;22;20003;-77
2023/02/11 15:09:52;;;;;;;10.35;8.20;;;14.60;42.60;;;;;;6279286;22;20467;-75
2023/02/11 15:12:27;;;;;;;10.70;8.35;;;14.60;42.70;;;;;;6306506;22;20003;-76
2023/02/11 15:14:56;;;;;;;11.48;8.48;;;14.50;42.70;;;;;;6306934;22;19995;-77
2023/02/11 15:17:26;;;;;;;10.70;7.90;;;14.40;42.90;;;;;;6307116;22;20316;-77
2023/02/11 15:19:55;;;;;;;11.68;8.10;;;14.40;43.00;;;;;;6306474;22;20436;-77
2023/02/11 15:22:31;;;;;;;12.85;8.88;;;14.30;43.20;;;;;;6273569;22;20074;-75
2023/02/11 15:25:18;;;;;;;14.80;8.00;;;14.30;43.40;;;;;;6303009;22;20003;-74
2023/02/11 15:27:56;;;;;;;12.15;8.13;;;14.20;43.60;;;;;;6305854;22;20385;-73
2023/02/11 15:30:22;;;;;;;11.20;6.78;;;14.10;43.40;;;;;;6306405;22;20488;-74
2023/02/11 15:33:19;;;;;;;10.07;7.10;;;14.00;43.80;;;;;;6305358;22;20030;-73
2023/02/11 15:35:45;;;;;;;11.18;7.50;;;14.00;43.60;;;;;;6305538;22;19999;-75
2023/02/11 15:38:12;;;;;;;11.65;7.65;;;13.90;43.70;;;;;;6306374;22;20006;-73
2023/02/11 15:40:38;;;;;;;10.82;7.30;;;13.80;43.80;;;;;;6306128;22;20348;-72
2023/02/11 15:43:09;;;;;;;11.07;7.45;;;13.70;43.80;;;;;;6306070;22;20100;-77
2023/02/11 15:45:50;;;;;;;13.48;7.50;;;13.70;43.70;;;;;;6303196;22;20000;-76
2023/02/11 15:48:25;;;;;;;14.15;7.50;;;13.60;44.70;;;;;;6279374;22;20056;-80
2023/02/11 15:51:05;;;;;;;11.10;7.70;;;13.50;43.80;;;;;;6306529;22;20338;-78
2023/02/11 15:53:42;;;;;;;11.98;7.70;;;13.50;45.10;;;;;;6306280;22;20003;-80
2023/02/11 15:56:07;;;;;;;13.38;7.93;;;13.40;43.40;;;;;;6305779;22;20440;-76
2023/02/11 15:58:42;;;;;;;12.13;7.50;;;13.40;44.10;;;;;;6305655;22;19999;-79
2023/02/11 16:01:11;;;;;;;10.07;7.30;;;13.30;43.80;;;;;;6306321;22;20054;-77
2023/02/11 16:03:38;;;;;;;11.25;7.60;;;13.30;43.80;;;;;;6305434;22;20058;-77
2023/02/11 16:06:24;;;;;;;11.38;7.70;;;13.20;44.10;;;;;;6305707;22;20015;-77
2023/02/11 16:09:11;;;;;;;12.45;7.93;;;13.10;43.80;;;;;;6278595;22;20104;-77
2023/02/11 16:11:54;;;;;;;11.10;7.63;;;13.00;44.30;;;;;;6278359;22;20068;-77
2023/02/11 16:14:28;;;;;;;11.70;7.95;;;13.00;44.40;;;;;;6306280;22;20003;-77
2023/02/11 16:16:56;;;;;;;11.05;7.97;;;12.90;46.70;;;;;;6305846;22;20023;-75
2023/02/11 16:19:24;;;;;;;11.57;7.63;;;12.80;45.50;;;;;;6278841;22;20061;-74
2023/02/11 16:21:50;;;;;;;12.50;7.43;;;12.80;45.00;;;;;;6277693;22;20007;-75
2023/02/11 16:24:32;;;;;;;11.40;7.95;;;12.70;45.10;;;;;;6305621;22;20003;-74
2023/02/11 16:27:03;;;;;;;10.43;7.68;;;12.60;47.50;;;;;;6305374;22;19999;-74
2023/02/11 16:29:32;;;;;;;13.93;7.68;;;12.50;45.70;;;;;;6305544;22;20019;-74
2023/02/11 16:32:06;;;;;;;11.32;7.47;;;12.50;45.90;;;;;;6305917;22;20000;-73
2023/02/11 16:34:31;;;;;;;12.80;7.75;;;12.40;46.50;;;;;;6306300;22;20050;-75
2023/02/11 16:36:57;;;;;;;15.10;8.18;;;12.30;46.50;;;;;;6306309;22;20044;-75
2023/02/11 16:39:23;;;;;;;12.48;7.70;;;12.30;47.00;;;;;;6306534;22;19995;-78
2023/02/11 16:41:50;;;;;;;13.23;8.25;;;12.20;47.10;;;;;;6314475;22;20010;-81
2023/02/11 16:44:16;;;;;;;9.27;7.15;;;12.10;48.40;;;;;;6307666;22;20004;-79
2023/02/11 16:46:43;;;;;;;12.48;7.45;;;12.10;48.20;;;;;;6308899;22;20106;-79
2023/02/11 16:49:11;;;;;;;11.15;7.88;;;12.00;48.30;;;;;;6308369;22;20003;-79
2023/02/11 16:51:40;;;;;;;11.82;8.05;;;12.00;48.40;;;;;;6280929;22;20275;-77
2023/02/11 16:54:11;;;;;;;15.27;9.20;;;11.90;48.80;;;;;;6280636;22;20008;-79
2023/02/11 16:56:37;;;;;;;13.57;9.05;;;11.90;48.90;;;;;;6280918;22;20488;-79
2023/02/11 16:59:02;;;;;;;12.32;8.48;;;11.80;49.10;;;;;;6307427;22;19999;-79
2023/02/11 17:01:28;;;;;;;12.90;8.98;;;11.80;49.40;;;;;;6306721;22;19999;-79
2023/02/11 17:03:54;;;;;;;12.55;8.90;;;11.70;49.90;;;;;;6306158;22;20030;-77
2023/02/11 17:06:19;;;;;;;13.85;9.20;;;11.70;49.80;;;;;;6306990;22;20003;-78
2023/02/11 17:08:45;;;;;;;15.60;8.95;;;11.70;50.00;;;;;;6307194;22;19999;-80
2023/02/11 17:11:15;;;;;;;13.05;9.18;;;11.60;50.50;;;;;;6279039;22;20054;-80
2023/02/11 17:13:41;;;;;;;14.93;9.27;;;11.60;50.60;;;;;;6306979;22;20015;-76
2023/02/11 17:16:18;;;;;;;15.45;10.32;;;11.60;50.80;;;;;;6306222;22;19996;-78
2023/02/11 17:18:44;;;;;;;18.33;11.05;;;11.50;51.00;;;;;;6279050;22;20007;-77
2023/02/11 17:21:10;;;;;;;18.20;10.32;;;11.50;51.10;;;;;;6306971;22;20010;-77
2023/02/11 17:23:36;;;;;;;17.27;11.05;;;11.50;50.90;;;;;;6307742;22;20082;-75
2023/02/11 17:26:02;;;;;;;19.95;10.60;;;11.40;51.20;;;;;;6307669;22;20038;-74
2023/02/11 17:28:28;;;;;;;14.10;10.88;;;11.40;51.40;;;;;;6301876;22;20077;-77
2023/02/11 17:30:54;;;;;;;15.45;10.77;;;11.40;51.60;;;;;;6307551;22;19999;-73
2023/02/11 17:33:20;;;;;;;17.25;11.50;;;11.40;51.80;;;;;;6306942;22;20038;-74
2023/02/11 17:35:45;;;;;;;15.95;11.10;;;11.40;52.00;;;;;;6307263;22;20079;-73
2023/02/11 17:38:11;;;;;;;21.27;11.30;;;11.40;52.30;;;;;;6307118;22;20010;-73
2023/02/11 17:40:37;;;;;;;21.38;14.70;;;11.40;52.70;;;;;;6280644;22;20096;-73
2023/02/11 17:43:03;;;;;;;21.35;13.55;;;11.40;52.50;;;;;;6307128;22;20011;-75
2023/02/11 17:45:29;;;;;;;21.55;13.30;;;11.30;52.60;;;;;;6307657;22;20029;-75
2023/02/11 17:47:54;;;;;;;17.48;12.13;;;11.30;52.80;;;;;;6307664;22;19999;-75
2023/02/11 17:50:20;;;;;;;19.58;13.00;;;11.30;53.10;;;;;;6308162;22;20049;-75
2023/02/11 17:52:46;;;;;;;16.52;11.45;;;11.30;53.00;;;;;;6307454;22;19999;-77
2023/02/11 17:55:12;;;;;;;16.00;11.88;;;11.20;53.20;;;;;;6308296;22;20046;-74
2023/02/11 17:57:38;;;;;;;16.55;12.43;;;11.20;53.60;;;;;;6308538;22;20010;-76
2023/02/11 18:00:06;;;;;;;15.55;11.70;;;11.20;53.50;;;;;;6307596;22;20041;-74
2023/02/11 18:02:32;;;;;;;18.02;12.73;;;11.20;53.50;;;;;;6307453;22;20011;-75
2023/02/11 18:04:58;;;;;;;17.30;12.65;;;11.10;53.60;;;;;;6308094;22;19995;-75
2023/02/11 18:07:25;;;;;;;17.98;13.05;;;11.10;53.80;;;;;;6307893;22;20050;-78
2023/02/11 18:09:51;;;;;;;18.75;12.85;;;11.10;53.80;;;;;;6281149;22;20029;-79
2023/02/11 18:12:24;;;;;;;19.85;13.52;;;11.00;54.00;;;;;;6309397;22;20000;-79
2023/02/11 18:14:52;;;;;;;14.82;9.73;;;11.00;54.20;;;;;;6309037;22;19995;-81
2023/02/11 18:17:19;;;;;;;17.75;13.25;;;11.00;54.00;;;;;;6281075;22;20346;-81
2023/02/11 18:19:45;;;;;;;21.33;14.88;;;11.00;54.00;;;;;;6309496;22;19999;-80
2023/02/11 18:22:11;;;;;;;20.13;14.05;;;11.00;54.20;;;;;;6311615;22;20007;-79
2023/02/11 18:24:37;;;;;;;21.35;13.20;;;10.90;54.10;;;;;;6280282;22;20011;-75
2023/02/11 18:27:02;;;;;;;22.23;13.77;;;10.90;54.00;;;;;;6308325;22;20006;-77
2023/02/11 18:29:28;;;;;;;19.60;13.73;;;10.90;53.70;;;;;;6307745;22;20440;-76
2023/02/11 18:31:55;;;;;;;18.95;12.73;;;10.80;53.40;;;;;;6307001;22;20070;-76
2023/02/11 18:34:21;;;;;;;22.40;12.68;;;10.80;53.60;;;;;;6307471;22;19999;-75
2023/02/11 18:36:48;;;;;;;17.50;12.38;;;10.90;53.50;;;;;;6307642;22;20014;-76
2023/02/11 18:39:14;;;;;;;14.65;10.63;;;10.80;53.00;;;;;;6307655;22;20026;-74
2023/02/11 18:41:42;;;;;;;16.10;10.65;;;10.90;52.80;;;;;;6307127;22;20425;-79
2023/02/11 18:44:08;;;;;;;17.63;11.73;;;10.90;52.60;;;;;;6280038;22;20016;-77
2023/02/11 18:46:34;;;;;;;15.85;11.55;;;10.80;52.40;;;;;;6280329;22;20003;-76
2023/02/11 18:48:59;;;;;;;22.65;13.10;;;10.80;52.50;;;;;;6307639;22;20003;-76
2023/02/11 18:51:25;;;;;;;22.50;12.73;;;10.90;52.40;;;;;;6307871;22;20074;-78
2023/02/11 18:53:53;;;;;;;20.10;11.63;;;10.80;52.30;;;;;;6305857;22;20022;-76
2023/02/11 18:56:21;;;;;;;17.88;12.23;;;10.80;52.10;;;;;;6307469;22;20023;-79
2023/02/11 18:58:48;;;;;;;14.48;10.75;;;10.80;51.90;;;;;;6306353;22;20057;-78
2023/02/11 19:01:15;;;;;;;17.35;11.45;;;10.80;51.90;;;;;;6279989;22;20063;-78
2023/02/11 19:03:42;;;;;;;16.70;11.07;;;10.80;51.80;;;;;;6305988;22;20137;-77
2023/02/11 19:06:25;;;;;;;17.45;11.73;;;10.80;51.80;;;;;;6305603;22;20003;-77
2023/02/11 19:08:52;;;;;;;19.23;12.82;;;10.70;51.60;;;;;;6306032;22;20056;-78
2023/02/11 19:11:18;;;;;;;18.10;12.65;;;10.70;51.80;;;;;;6307438;22;20007;-78
2023/02/11 19:13:48;;;;;;;22.05;13.90;;;10.70;51.90;;;;;;6307652;22;20003;-78
2023/02/11 19:16:15;;;;;;;18.52;12.35;;;10.60;52.00;;;;;;6307057;22;20413;-77
2023/02/11 19:18:41;;;;;;;18.92;12.80;;;10.60;51.80;;;;;;6280307;22;20087;-78
2023/02/11 19:21:11;;;;;;;18.77;11.52;;;10.60;51.70;;;;;;6307215;22;20027;-78
2023/02/11 19:23:37;;;;;;;20.23;12.95;;;10.60;51.50;;;;;;6279963;22;20011;-78
2023/02/11 19:26:05;;;;;;;18.13;12.50;;;10.60;52.00;;;;;;6308048;22;20007;-79
2023/02/11 19:28:31;;;;;;;21.27;12.43;;;10.50;51.40;;;;;;6307151;22;20524;-77
2023/02/11 19:31:03;;;;;;;20.88;13.52;;;10.50;51.40;;;;;;6307535;22;20368;-77
2023/02/11 19:33:29;;;;;;;20.65;13.73;;;10.40;51.40;;;;;;6307546;22;20006;-76
2023/02/11 19:36:00;;;;;;;22.17;13.73;;;10.30;51.50;;;;;;6307919;22;20027;-79
2023/02/11 19:38:26;;;;;;;21.48;14.73;;;10.30;51.50;;;;;;6307625;22;19999;-78
2023/02/11 19:40:55;;;;;;;22.48;13.82;;;10.20;51.50;;;;;;6308048;22;20003;-78
2023/02/11 19:43:21;;;;;;;20.42;13.43;;;10.20;51.50;;;;;;6307856;22;20012;-79
2023/02/11 19:45:47;;;;;;;19.02;13.90;;;10.20;51.50;;;;;;6308107;22;20000;-78
2023/02/11 19:48:12;;;;;;;22.02;14.68;;;10.20;51.60;;;;;;6280717;22;20007;-78
2023/02/11 19:50:38;;;;;;;22.60;15.40;;;10.20;51.70;;;;;;6308862;22;20291;-77
2023/02/11 19:53:04;;;;;;;24.67;15.98;;;10.10;51.60;;;;;;6308192;22;20033;-78
2023/02/11 19:55:33;;;;;;;25.05;15.90;;;10.10;51.70;;;;;;6309971;22;20445;-78
2023/02/11 19:57:58;;;;;;;22.25;15.45;;;10.10;51.80;;;;;;6310379;22;20006;-78
2023/02/11 20:00:27;;;;;;;23.13;16.00;;;10.10;52.00;;;;;;6320681;22;19996;-78
2023/02/11 20:02:53;;;;;;;21.83;15.13;;;10.00;51.70;;;;;;6315055;22;20007;-77
2023/02/11 20:05:18;;;;;;;21.00;15.00;;;10.00;51.80;;;;;;6319997;22;20018;-79
2023/02/11 20:07:44;;;;;;;30.13;16.88;;;10.00;51.90;;;;;;6308602;22;20478;-78
2023/02/11 20:10:10;;;;;;;27.98;18.42;;;10.00;52.00;;;;;;6307932;22;19999;-78
2023/02/11 20:12:36;;;;;;;24.88;17.02;;;10.00;52.00;;;;;;6307841;22;19999;-78
2023/02/11 20:15:02;;;;;;;25.20;17.35;;;10.00;52.20;;;;;;6307343;22;20460;-78
2023/02/11 20:17:28;;;;;;;26.33;17.63;;;10.00;52.00;;;;;;6307756;22;20003;-79
2023/02/11 20:19:54;;;;;;;29.45;18.77;;;9.90;52.90;;;;;;6306990;22;20332;-78
2023/02/11 20:22:19;;;;;;;30.30;21.92;;;9.80;53.60;;;;;;6279983;22;20019;-78
2023/02/11 20:24:45;;;;;;;41.38;24.13;;;9.80;53.30;;;;;;6307714;22;20067;-79
2023/02/11 20:27:11;;;;;;;29.40;20.50;;;9.80;53.50;;;;;;6307477;22;20117;-76
2023/02/11 20:29:38;;;;;;;27.60;20.38;;;9.80;53.30;;;;;;6307116;22;20015;-78
2023/02/11 20:32:05;;;;;;;30.83;20.70;;;9.80;53.40;;;;;;6307078;22;20026;-77
2023/02/11 20:34:31;;;;;;;33.63;20.13;;;9.80;54.00;;;;;;6307359;22;20333;-77
2023/02/11 20:36:57;;;;;;;29.33;20.42;;;9.70;53.70;;;;;;6280413;22;20007;-76
2023/02/11 20:39:24;;;;;;;32.33;22.95;;;9.70;53.70;;;;;;6307598;22;19995;-78
2023/02/11 20:41:50;;;;;;;32.40;22.08;;;9.60;54.20;;;;;;6307280;22;20053;-79
2023/02/11 20:44:16;;;;;;;34.35;22.10;;;9.50;54.10;;;;;;6307212;22;20488;-78
2023/02/11 20:46:46;;;;;;;31.65;21.80;;;9.60;54.40;;;;;;6307341;22;20023;-79
2023/02/11 20:49:14;;;;;;;31.02;22.88;;;9.50;54.40;;;;;;6280633;22;20379;-78
2023/02/11 20:51:40;;;;;;;35.65;22.88;;;9.50;54.70;;;;;;6307248;22;20004;-77
2023/02/11 20:54:10;;;;;;;34.42;21.77;;;9.40;55.10;;;;;;6307309;22;20003;-78
2023/02/11 20:56:37;;;;;;;32.90;23.80;;;9.40;54.90;;;;;;6307583;22;20010;-80
2023/02/11 20:59:03;;;;;;;35.88;24.10;;;9.40;55.10;;;;;;6307320;22;20003;-79
2023/02/11 21:01:32;;;;;;;36.65;25.00;;;9.30;55.20;;;;;;6307565;22;20010;-79
2023/02/11 21:04:11;;;;;;;39.53;25.02;;;9.30;55.10;;;;;;6307552;22;20027;-78
2023/02/11 21:06:40;;;;;;;37.10;24.65;;;9.30;55.30;;;;;;6307336;22;20329;-78
2023/02/11 21:09:07;;;;;;;36.65;24.65;;;9.30;55.20;;;;;;6307236;22;20035;-79
2023/02/11 21:11:34;;;;;;;34.55;25.17;;;9.20;55.40;;;;;;6307484;22;20003;-77
2023/02/11 21:14:00;;;;;;;37.17;26.13;;;9.20;55.50;;;;;;6307444;22;20048;-77
2023/02/11 21:16:26;;;;;;;31.83;24.08;;;9.20;55.70;;;;;;6307513;22;20429;-79
2023/02/11 21:18:54;;;;;;;35.58;24.90;;;9.10;55.50;;;;;;6307787;22;20000;-78
2023/02/11 21:21:20;;;;;;;34.60;24.10;;;9.20;55.40;;;;;;6307172;22;20006;-79
2023/02/11 21:23:46;;;;;;;36.75;24.80;;;9.10;55.60;;;;;;6279927;22;20019;-78
2023/02/11 21:26:12;;;;;;;36.40;23.33;;;9.20;55.60;;;;;;6307619;22;20006;-79
2023/02/11 21:28:38;;;;;;;34.05;24.13;;;9.10;55.40;;;;;;6307070;22;20349;-78
2023/02/11 21:31:04;;;;;;;37.80;25.85;;;9.10;55.40;;;;;;6309228;22;20053;-79
2023/02/11 21:33:32;;;;;;;33.42;22.70;;;9.10;55.50;;;;;;6309196;22;20066;-77
2023/02/11 21:36:00;;;;;;;39.10;25.00;;;9.00;55.40;;;;;;6309142;22;20086;-78
2023/02/11 21:38:27;;;;;;;35.65;24.52;;;9.00;55.30;;;;;;6309143;22;19999;-77
2023/02/11 21:40:52;;;;;;;33.15;23.08;;;8.90;55.40;;;;;;6281881;22;20017;-79
2023/02/11 21:43:18;;;;;;;35.53;24.70;;;8.90;55.50;;;;;;6308526;22;20039;-77
2023/02/11 21:45:46;;;;;;;34.10;24.48;;;8.90;55.40;;;;;;6310184;22;19995;-76
2023/02/11 21:48:12;;;;;;;34.58;24.27;;;8.90;55.40;;;;;;6310583;22;20011;-78
2023/02/11 21:50:43;;;;;;;39.92;25.40;;;8.90;55.50;;;;;;6309094;22;20026;-78
2023/02/11 21:53:09;;;;;;;36.13;25.10;;;8.90;55.50;;;;;;6308961;22;20030;-78
2023/02/11 21:55:36;;;;;;;38.30;27.42;;;8.90;55.50;;;;;;6309306;22;20006;-78
2023/02/11 21:58:02;;;;;;;36.30;26.10;;;9.00;55.40;;;;;;6308709;22;20052;-78
2023/02/11 22:00:29;;;;;;;43.78;27.02;;;8.90;55.60;;;;;;6309048;22;20003;-78
2023/02/11 22:02:55;;;;;;;42.38;26.92;;;8.90;55.30;;;;;;6309317;22;20011;-77
2023/02/11 22:05:20;;;;;;;37.13;26.85;;;8.90;55.60;;;;;;6281716;22;20038;-78
2023/02/11 22:07:47;;;;;;;37.33;27.52;;;8.90;55.70;;;;;;6308799;22;20325;-76
2023/02/11 22:10:12;;;;;;;41.42;27.30;;;8.80;55.40;;;;;;6308720;22;19996;-78
2023/02/11 22:12:38;;;;;;;35.80;26.42;;;8.70;55.50;;;;;;6281319;22;20011;-78
2023/02/11 22:15:05;;;;;;;39.05;27.15;;;8.70;55.80;;;;;;6308616;22;20373;-78
2023/02/11 22:17:32;;;;;;;34.50;26.92;;;8.70;56.10;;;;;;6308841;22;20007;-77
2023/02/11 22:19:58;;;;;;;41.15;26.75;;;8.60;55.40;;;;;;6308449;22;19999;-78
2023/02/11 22:22:24;;;;;;;40.30;26.42;;;8.70;55.50;;;;;;6308605;22;20012;-79
2023/02/11 22:24:50;;;;;;;39.72;27.55;;;8.60;55.40;;;;;;6280943;22;20077;-77
2023/02/11 22:27:16;;;;;;;37.38;26.83;;;8.60;55.40;;;;;;6308479;22;19999;-77
2023/02/11 22:29:42;;;;;;;38.03;26.45;;;8.70;55.80;;;;;;6281654;22;20353;-79
2023/02/11 22:32:08;;;;;;;38.40;27.25;;;8.60;55.80;;;;;;6309092;22;20002;-77
2023/02/11 22:34:34;;;;;;;40.25;28.80;;;8.70;55.80;;;;;;6309574;22;19999;-78
2023/02/11 22:37:01;;;;;;;42.45;29.10;;;8.60;55.90;;;;;;6309280;22;20429;-76
2023/02/11 22:39:28;;;;;;;48.80;30.15;;;8.60;56.40;;;;;;6308612;22;20007;-79
2023/02/11 22:41:55;;;;;;;46.47;30.67;;;8.60;56.30;;;;;;6279088;22;20052;-76
2023/02/11 22:44:22;;;;;;;48.05;31.73;;;8.60;56.50;;;;;;6280552;22;20441;-77
2023/02/11 22:46:48;;;;;;;45.05;28.83;;;8.60;56.20;;;;;;6309307;22;20353;-75
2023/02/11 22:49:16;;;;;;;45.88;31.25;;;8.50;56.30;;;;;;6307782;22;20015;-76
2023/02/11 22:51:42;;;;;;;49.08;33.45;;;8.50;56.60;;;;;;6289845;22;19999;-77
2023/02/11 22:54:12;;;;;;;50.55;32.15;;;8.40;56.50;;;;;;6303942;22;20070;-76
2023/02/11 22:56:38;;;;;;;54.05;34.13;;;8.40;56.90;;;;;;6306397;22;20011;-77
2023/02/11 22:59:07;;;;;;;52.42;33.28;;;8.30;57.40;;;;;;6309941;22;20072;-79
2023/02/11 23:01:33;;;;;;;45.95;33.25;;;8.30;57.60;;;;;;6308035;22;19999;-78
2023/02/11 23:04:01;;;;;;;45.88;33.30;;;8.30;57.60;;;;;;6307039;22;20015;-80
2023/02/11 23:06:27;;;;;;;45.83;32.17;;;8.30;57.80;;;;;;6307003;22;20000;-79
2023/02/11 23:08:53;;;;;;;45.53;32.20;;;8.20;57.50;;;;;;6305651;22;19999;-80
2023/02/11 23:11:21;;;;;;;49.67;31.63;;;8.10;57.40;;;;;;6305999;22;19996;-80
2023/02/11 23:13:50;;;;;;;50.60;33.03;;;8.10;58.00;;;;;;6279988;22;20015;-80
2023/02/11 23:16:18;;;;;;;49.00;33.30;;;8.00;57.80;;;;;;6306910;22;20041;-79
2023/02/11 23:18:47;;;;;;;47.33;33.85;;;7.90;57.90;;;;;;6307375;22;20003;-80
2023/02/11 23:21:19;;;;;;;44.17;30.98;;;7.90;58.00;;;;;;6307027;22;20100;-79
2023/02/11 23:23:47;;;;;;;45.65;31.90;;;7.90;58.70;;;;;;6307078;22;20011;-80
2023/02/11 23:26:14;;;;;;;46.50;33.03;;;7.90;57.90;;;;;;6279342;22;20003;-79
2023/02/11 23:28:41;;;;;;;43.85;31.95;;;7.90;58.10;;;;;;6306660;22;20041;-80
2023/02/11 23:31:20;;;;;;;49.60;32.92;;;7.90;58.30;;;;;;6307557;22;19999;-80
2023/02/11 23:33:46;;;;;;;44.22;32.45;;;7.90;58.80;;;;;;6308209;22;20006;-79
2023/02/11 23:36:12;;;;;;;45.47;32.30;;;7.80;58.00;;;;;;6312023;22;19999;-79
2023/02/11 23:38:38;;;;;;;47.08;32.65;;;7.70;58.00;;;;;;6307420;22;19999;-79
2023/02/11 23:41:04;;;;;;;47.38;32.05;;;7.60;58.10;;;;;;6306899;22;20071;-80
2023/02/11 23:43:30;;;;;;;50.58;33.10;;;7.60;58.30;;;;;;6306847;22;20379;-80
2023/02/11 23:45:55;;;;;;;46.38;32.08;;;7.50;58.10;;;;;;6279185;22;20381;-80
2023/02/11 23:48:21;;;;;;;44.42;30.90;;;7.60;58.40;;;;;;6307040;22;19999;-80
2023/02/11 23:50:47;;;;;;;45.40;31.83;;;7.50;58.70;;;;;;6279670;22;20027;-79
2023/02/11 23:53:13;;;;;;;44.40;31.52;;;7.50;58.70;;;;;;6279349;22;20018;-79
2023/02/11 23:55:40;;;;;;;49.63;30.83;;;7.50;58.40;;;;;;6279571;22;20010;-80
2023/02/11 23:58:05;;;;;;;52.38;31.80;;;7.50;58.30;;;;;;6306744;22;20003;-79
